sensor_id;sensor_type;location;lat;lon;timestamp;P1;durP1;ratioP1;P2;durP2;ratioP2
64682;SDS011;51107;47.652;19.016;2023-04-23T00:02:22;3.10;;;1.98;;
64682;SDS011;51107;47.652;19.016;2023-04-23T00:04:54;2.08;;;1.73;;
64682;SDS011;51107;47.652;19.016;2023-04-23T00:07:29;5.93;;;2.92;;
64682;SDS011;51107;47.652;19.016;2023-04-23T00:10:00;5.70;;;2.35;;
64682;SDS011;51107;47.652;19.016;2023-04-23T00:12:31;3.65;;;1.80;;
64682;SDS011;51107;47.652;19.016;2023-04-23T00:15:00;6.75;;;1.95;;
64682;SDS011;51107;47.652;19.016;2023-04-23T00:17:33;3.08;;;1.75;;
64682;SDS011;51107;47.652;19.016;2023-04-23T00:20:03;4.05;;;1.50;;
64682;SDS011;51107;47.652;19.016;2023-04-23T00:22:32;3.97;;;1.87;;
64682;SDS011;51107;47.652;19.016;2023-04-23T00:25:00;2.78;;;1.83;;
64682;SDS011;51107;47.652;19.016;2023-04-23T00:27:29;2.87;;;1.83;;
64682;SDS011;51107;47.652;19.016;2023-04-23T00:29:58;4.90;;;1.85;;
64682;SDS011;51107;47.652;19.016;2023-04-23T00:32:30;3.75;;;1.65;;
64682;SDS011;51107;47.652;19.016;2023-04-23T00:34:58;2.33;;;1.98;;
64682;SDS011;51107;47.652;19.016;2023-04-23T00:37:27;2.85;;;1.75;;
64682;SDS011;51107;47.652;19.016;2023-04-23T00:39:56;2.15;;;1.67;;
64682;SDS011;51107;47.652;19.016;2023-04-23T00:42:24;2.00;;;1.60;;
64682;SDS011;51107;47.652;19.016;2023-04-23T00:44:53;3.67;;;1.35;;
64682;SDS011;51107;47.652;19.016;2023-04-23T00:47:22;2.30;;;1.33;;
64682;SDS011;51107;47.652;19.016;2023-04-23T00:49:51;3.05;;;1.67;;
64682;SDS011;51107;47.652;19.016;2023-04-23T00:52:22;2.15;;;1.33;;
64682;SDS011;51107;47.652;19.016;2023-04-23T00:54:50;2.33;;;1.50;;
64682;SDS011;51107;47.652;19.016;2023-04-23T00:57:19;30.17;;;1.80;;
64682;SDS011;51107;47.652;19.016;2023-04-23T00:59:48;2.35;;;1.75;;
64682;SDS011;51107;47.652;19.016;2023-04-23T01:02:17;3.25;;;2.03;;
64682;SDS011;51107;47.652;19.016;2023-04-23T01:04:46;4.35;;;1.77;;
64682;SDS011;51107;47.652;19.016;2023-04-23T01:07:18;4.15;;;1.85;;
64682;SDS011;51107;47.652;19.016;2023-04-23T01:09:47;2.22;;;1.60;;
64682;SDS011;51107;47.652;19.016;2023-04-23T01:12:17;2.78;;;1.42;;
64682;SDS011;51107;47.652;19.016;2023-04-23T01:14:46;2.92;;;1.80;;
64682;SDS011;51107;47.652;19.016;2023-04-23T01:17:14;4.75;;;1.98;;
64682;SDS011;51107;47.652;19.016;2023-04-23T01:19:44;2.87;;;2.12;;
64682;SDS011;51107;47.652;19.016;2023-04-23T01:22:13;3.22;;;2.00;;
64682;SDS011;51107;47.652;19.016;2023-04-23T01:24:42;3.50;;;2.17;;
64682;SDS011;51107;47.652;19.016;2023-04-23T01:27:10;3.87;;;1.77;;
64682;SDS011;51107;47.652;19.016;2023-04-23T01:29:39;2.15;;;1.58;;
64682;SDS011;51107;47.652;19.016;2023-04-23T01:32:09;2.05;;;1.35;;
64682;SDS011;51107;47.652;19.016;2023-04-23T01:34:37;5.43;;;2.17;;
64682;SDS011;51107;47.652;19.016;2023-04-23T01:37:07;4.40;;;1.87;;
64682;SDS011;51107;47.652;19.016;2023-04-23T01:39:36;2.80;;;2.08;;
64682;SDS011;51107;47.652;19.016;2023-04-23T01:42:04;3.12;;;1.52;;
64682;SDS011;51107;47.652;19.016;2023-04-23T01:44:36;3.20;;;1.77;;
64682;SDS011;51107;47.652;19.016;2023-04-23T01:47:05;1.75;;;1.25;;
64682;SDS011;51107;47.652;19.016;2023-04-23T01:49:34;2.42;;;1.42;;
64682;SDS011;51107;47.652;19.016;2023-04-23T01:52:02;2.78;;;1.92;;
64682;SDS011;51107;47.652;19.016;2023-04-23T01:54:33;4.53;;;1.50;;
64682;SDS011;51107;47.652;19.016;2023-04-23T01:57:01;4.30;;;1.92;;
64682;SDS011;51107;47.652;19.016;2023-04-23T01:59:30;6.18;;;2.53;;
64682;SDS011;51107;47.652;19.016;2023-04-23T02:01:58;3.17;;;2.12;;
64682;SDS011;51107;47.652;19.016;2023-04-23T02:04:27;2.55;;;1.60;;
64682;SDS011;51107;47.652;19.016;2023-04-23T02:06:56;3.90;;;1.85;;
64682;SDS011;51107;47.652;19.016;2023-04-23T02:09:24;2.12;;;1.55;;
64682;SDS011;51107;47.652;19.016;2023-04-23T02:11:53;2.37;;;1.62;;
64682;SDS011;51107;47.652;19.016;2023-04-23T02:14:21;3.75;;;1.77;;
64682;SDS011;51107;47.652;19.016;2023-04-23T02:16:50;3.83;;;2.30;;
64682;SDS011;51107;47.652;19.016;2023-04-23T02:19:18;4.65;;;2.33;;
64682;SDS011;51107;47.652;19.016;2023-04-23T02:21:47;4.00;;;2.12;;
64682;SDS011;51107;47.652;19.016;2023-04-23T02:24:15;6.53;;;2.70;;
64682;SDS011;51107;47.652;19.016;2023-04-23T02:26:43;3.85;;;2.30;;
64682;SDS011;51107;47.652;19.016;2023-04-23T02:29:12;5.35;;;2.87;;
64682;SDS011;51107;47.652;19.016;2023-04-23T02:31:40;4.28;;;2.37;;
64682;SDS011;51107;47.652;19.016;2023-04-23T02:34:08;4.00;;;2.53;;
64682;SDS011;51107;47.652;19.016;2023-04-23T02:36:37;6.43;;;3.40;;
64682;SDS011;51107;47.652;19.016;2023-04-23T02:39:05;3.78;;;2.53;;
64682;SDS011;51107;47.652;19.016;2023-04-23T02:41:34;4.55;;;2.40;;
64682;SDS011;51107;47.652;19.016;2023-04-23T02:44:02;3.97;;;2.47;;
64682;SDS011;51107;47.652;19.016;2023-04-23T02:46:30;5.53;;;2.42;;
64682;SDS011;51107;47.652;19.016;2023-04-23T02:48:59;4.75;;;2.08;;
64682;SDS011;51107;47.652;19.016;2023-04-23T02:51:28;3.08;;;2.03;;
64682;SDS011;51107;47.652;19.016;2023-04-23T02:53:56;7.25;;;3.28;;
64682;SDS011;51107;47.652;19.016;2023-04-23T02:56:25;3.65;;;2.30;;
64682;SDS011;51107;47.652;19.016;2023-04-23T02:58:53;5.18;;;2.83;;
64682;SDS011;51107;47.652;19.016;2023-04-23T03:01:23;3.72;;;2.37;;
64682;SDS011;51107;47.652;19.016;2023-04-23T03:03:52;2.47;;;1.85;;
64682;SDS011;51107;47.652;19.016;2023-04-23T03:06:21;3.75;;;2.22;;
64682;SDS011;51107;47.652;19.016;2023-04-23T03:08:49;3.10;;;2.05;;
64682;SDS011;51107;47.652;19.016;2023-04-23T03:11:17;2.62;;;1.70;;
64682;SDS011;51107;47.652;19.016;2023-04-23T03:13:46;3.87;;;2.10;;
64682;SDS011;51107;47.652;19.016;2023-04-23T03:16:14;3.53;;;2.17;;
64682;SDS011;51107;47.652;19.016;2023-04-23T03:18:43;4.40;;;2.40;;
64682;SDS011;51107;47.652;19.016;2023-04-23T03:21:12;2.15;;;1.58;;
64682;SDS011;51107;47.652;19.016;2023-04-23T03:23:40;1.95;;;1.52;;
64682;SDS011;51107;47.652;19.016;2023-04-23T03:26:09;5.12;;;1.52;;
64682;SDS011;51107;47.652;19.016;2023-04-23T03:28:37;1.87;;;1.30;;
64682;SDS011;51107;47.652;19.016;2023-04-23T03:31:06;2.62;;;1.60;;
64682;SDS011;51107;47.652;19.016;2023-04-23T03:33:35;3.10;;;1.87;;
64682;SDS011;51107;47.652;19.016;2023-04-23T03:36:04;3.33;;;2.12;;
64682;SDS011;51107;47.652;19.016;2023-04-23T03:38:32;3.50;;;1.98;;
64682;SDS011;51107;47.652;19.016;2023-04-23T03:41:01;12.98;;;2.72;;
64682;SDS011;51107;47.652;19.016;2023-04-23T03:43:30;3.97;;;2.35;;
64682;SDS011;51107;47.652;19.016;2023-04-23T03:46:00;8.43;;;3.30;;
64682;SDS011;51107;47.652;19.016;2023-04-23T03:48:28;4.30;;;2.72;;
64682;SDS011;51107;47.652;19.016;2023-04-23T03:50:58;4.37;;;1.98;;
64682;SDS011;51107;47.652;19.016;2023-04-23T03:53:27;3.85;;;2.37;;
64682;SDS011;51107;47.652;19.016;2023-04-23T03:55:58;4.93;;;2.55;;
64682;SDS011;51107;47.652;19.016;2023-04-23T03:58:27;3.00;;;2.10;;
64682;SDS011;51107;47.652;19.016;2023-04-23T04:00:56;2.12;;;1.58;;
64682;SDS011;51107;47.652;19.016;2023-04-23T04:03:24;2.97;;;1.83;;
64682;SDS011;51107;47.652;19.016;2023-04-23T04:05:53;3.22;;;2.03;;
64682;SDS011;51107;47.652;19.016;2023-04-23T04:08:21;2.53;;;1.37;;
64682;SDS011;51107;47.652;19.016;2023-04-23T04:10:51;2.75;;;1.83;;
64682;SDS011;51107;47.652;19.016;2023-04-23T04:13:20;2.80;;;1.48;;
64682;SDS011;51107;47.652;19.016;2023-04-23T04:15:48;1.48;;;1.20;;
64682;SDS011;51107;47.652;19.016;2023-04-23T04:18:17;3.33;;;1.52;;
64682;SDS011;51107;47.652;19.016;2023-04-23T04:20:46;5.18;;;2.30;;
64682;SDS011;51107;47.652;19.016;2023-04-23T04:23:14;2.92;;;1.95;;
64682;SDS011;51107;47.652;19.016;2023-04-23T04:25:43;3.92;;;2.35;;
64682;SDS011;51107;47.652;19.016;2023-04-23T04:28:12;3.10;;;1.73;;
64682;SDS011;51107;47.652;19.016;2023-04-23T04:30:40;3.22;;;1.98;;
64682;SDS011;51107;47.652;19.016;2023-04-23T04:33:09;2.75;;;1.87;;
64682;SDS011;51107;47.652;19.016;2023-04-23T04:35:37;2.83;;;1.95;;
64682;SDS011;51107;47.652;19.016;2023-04-23T04:38:06;4.87;;;2.03;;
64682;SDS011;51107;47.652;19.016;2023-04-23T04:40:34;1.48;;;1.08;;
64682;SDS011;51107;47.652;19.016;2023-04-23T04:43:02;3.42;;;1.95;;
64682;SDS011;51107;47.652;19.016;2023-04-23T04:45:34;2.90;;;1.98;;
64682;SDS011;51107;47.652;19.016;2023-04-23T04:48:02;8.85;;;3.28;;
64682;SDS011;51107;47.652;19.016;2023-04-23T04:50:30;3.33;;;2.17;;
64682;SDS011;51107;47.652;19.016;2023-04-23T04:52:59;3.67;;;2.25;;
64682;SDS011;51107;47.652;19.016;2023-04-23T04:55:28;3.33;;;1.95;;
64682;SDS011;51107;47.652;19.016;2023-04-23T04:57:57;6.60;;;2.75;;
64682;SDS011;51107;47.652;19.016;2023-04-23T05:00:27;3.28;;;2.15;;
64682;SDS011;51107;47.652;19.016;2023-04-23T05:02:56;4.00;;;2.30;;
64682;SDS011;51107;47.652;19.016;2023-04-23T05:05:26;8.73;;;1.90;;
64682;SDS011;51107;47.652;19.016;2023-04-23T05:07:54;4.28;;;2.35;;
64682;SDS011;51107;47.652;19.016;2023-04-23T05:10:27;3.03;;;2.33;;
64682;SDS011;51107;47.652;19.016;2023-04-23T05:12:56;3.15;;;1.95;;
64682;SDS011;51107;47.652;19.016;2023-04-23T05:15:24;2.20;;;1.40;;
64682;SDS011;51107;47.652;19.016;2023-04-23T05:17:53;3.28;;;2.08;;
64682;SDS011;51107;47.652;19.016;2023-04-23T05:20:22;4.20;;;2.42;;
64682;SDS011;51107;47.652;19.016;2023-04-23T05:22:50;3.15;;;2.28;;
64682;SDS011;51107;47.652;19.016;2023-04-23T05:25:19;3.70;;;2.08;;
64682;SDS011;51107;47.652;19.016;2023-04-23T05:27:47;3.10;;;2.33;;
64682;SDS011;51107;47.652;19.016;2023-04-23T05:30:15;3.42;;;2.25;;
64682;SDS011;51107;47.652;19.016;2023-04-23T05:32:44;2.87;;;1.95;;
64682;SDS011;51107;47.652;19.016;2023-04-23T05:35:13;4.75;;;2.20;;
64682;SDS011;51107;47.652;19.016;2023-04-23T05:37:41;4.18;;;2.35;;
64682;SDS011;51107;47.652;19.016;2023-04-23T05:40:10;3.85;;;2.53;;
64682;SDS011;51107;47.652;19.016;2023-04-23T05:42:38;7.62;;;1.67;;
64682;SDS011;51107;47.652;19.016;2023-04-23T05:45:07;3.92;;;2.12;;
64682;SDS011;51107;47.652;19.016;2023-04-23T05:47:36;2.45;;;1.83;;
64682;SDS011;51107;47.652;19.016;2023-04-23T05:50:05;8.00;;;2.62;;
64682;SDS011;51107;47.652;19.016;2023-04-23T05:52:34;3.60;;;2.35;;
64682;SDS011;51107;47.652;19.016;2023-04-23T05:55:05;3.45;;;2.67;;
64682;SDS011;51107;47.652;19.016;2023-04-23T05:57:35;3.55;;;2.03;;
64682;SDS011;51107;47.652;19.016;2023-04-23T06:00:05;4.97;;;2.92;;
64682;SDS011;51107;47.652;19.016;2023-04-23T06:02:39;5.40;;;3.22;;
64682;SDS011;51107;47.652;19.016;2023-04-23T06:05:08;3.40;;;2.20;;
64682;SDS011;51107;47.652;19.016;2023-04-23T06:07:38;4.70;;;2.62;;
64682;SDS011;51107;47.652;19.016;2023-04-23T06:10:07;4.72;;;2.25;;
64682;SDS011;51107;47.652;19.016;2023-04-23T06:12:36;3.60;;;2.08;;
64682;SDS011;51107;47.652;19.016;2023-04-23T06:15:06;4.05;;;2.53;;
64682;SDS011;51107;47.652;19.016;2023-04-23T06:17:35;4.78;;;2.47;;
64682;SDS011;51107;47.652;19.016;2023-04-23T06:20:04;3.80;;;2.35;;
64682;SDS011;51107;47.652;19.016;2023-04-23T06:22:34;3.35;;;2.33;;
64682;SDS011;51107;47.652;19.016;2023-04-23T06:25:03;3.25;;;1.95;;
64682;SDS011;51107;47.652;19.016;2023-04-23T06:27:32;3.40;;;2.12;;
64682;SDS011;51107;47.652;19.016;2023-04-23T06:30:01;4.00;;;2.50;;
64682;SDS011;51107;47.652;19.016;2023-04-23T06:32:30;3.95;;;2.10;;
64682;SDS011;51107;47.652;19.016;2023-04-23T06:34:58;3.50;;;2.40;;
64682;SDS011;51107;47.652;19.016;2023-04-23T06:37:29;4.53;;;2.37;;
64682;SDS011;51107;47.652;19.016;2023-04-23T06:39:59;2.97;;;2.05;;
64682;SDS011;51107;47.652;19.016;2023-04-23T06:42:27;4.07;;;2.53;;
64682;SDS011;51107;47.652;19.016;2023-04-23T06:44:56;4.28;;;2.35;;
64682;SDS011;51107;47.652;19.016;2023-04-23T06:47:26;5.35;;;2.50;;
64682;SDS011;51107;47.652;19.016;2023-04-23T06:49:54;3.53;;;2.33;;
64682;SDS011;51107;47.652;19.016;2023-04-23T06:52:23;5.35;;;2.60;;
64682;SDS011;51107;47.652;19.016;2023-04-23T06:54:51;4.15;;;1.77;;
64682;SDS011;51107;47.652;19.016;2023-04-23T06:57:19;2.75;;;2.00;;
64682;SDS011;51107;47.652;19.016;2023-04-23T06:59:48;2.83;;;2.12;;
64682;SDS011;51107;47.652;19.016;2023-04-23T07:02:19;2.67;;;1.85;;
64682;SDS011;51107;47.652;19.016;2023-04-23T07:04:47;3.25;;;2.05;;
64682;SDS011;51107;47.652;19.016;2023-04-23T07:07:15;3.20;;;2.08;;
64682;SDS011;51107;47.652;19.016;2023-04-23T07:09:44;2.85;;;1.87;;
64682;SDS011;51107;47.652;19.016;2023-04-23T07:12:13;3.80;;;2.05;;
64682;SDS011;51107;47.652;19.016;2023-04-23T07:14:41;4.20;;;2.20;;
64682;SDS011;51107;47.652;19.016;2023-04-23T07:17:10;7.40;;;2.40;;
64682;SDS011;51107;47.652;19.016;2023-04-23T07:19:39;3.58;;;2.25;;
64682;SDS011;51107;47.652;19.016;2023-04-23T07:22:07;3.97;;;2.42;;
64682;SDS011;51107;47.652;19.016;2023-04-23T07:24:35;4.43;;;2.12;;
64682;SDS011;51107;47.652;19.016;2023-04-23T07:27:04;2.45;;;2.08;;
64682;SDS011;51107;47.652;19.016;2023-04-23T07:29:33;3.00;;;2.25;;
64682;SDS011;51107;47.652;19.016;2023-04-23T07:32:01;3.20;;;2.10;;
64682;SDS011;51107;47.652;19.016;2023-04-23T07:34:30;4.72;;;1.77;;
64682;SDS011;51107;47.652;19.016;2023-04-23T07:36:58;2.75;;;2.10;;
64682;SDS011;51107;47.652;19.016;2023-04-23T07:39:27;3.33;;;2.40;;
64682;SDS011;51107;47.652;19.016;2023-04-23T07:41:55;3.45;;;1.85;;
64682;SDS011;51107;47.652;19.016;2023-04-23T07:44:26;2.60;;;1.80;;
64682;SDS011;51107;47.652;19.016;2023-04-23T07:46:55;5.18;;;2.40;;
64682;SDS011;51107;47.652;19.016;2023-04-23T07:49:23;3.72;;;2.20;;
64682;SDS011;51107;47.652;19.016;2023-04-23T07:51:52;3.85;;;2.40;;
64682;SDS011;51107;47.652;19.016;2023-04-23T07:54:20;3.28;;;1.98;;
64682;SDS011;51107;47.652;19.016;2023-04-23T07:56:53;3.95;;;2.55;;
64682;SDS011;51107;47.652;19.016;2023-04-23T07:59:21;3.00;;;2.33;;
64682;SDS011;51107;47.652;19.016;2023-04-23T08:01:50;4.85;;;2.28;;
64682;SDS011;51107;47.652;19.016;2023-04-23T08:04:19;7.80;;;2.15;;
64682;SDS011;51107;47.652;19.016;2023-04-23T08:06:48;4.10;;;2.35;;
64682;SDS011;51107;47.652;19.016;2023-04-23T08:09:17;3.72;;;2.33;;
64682;SDS011;51107;47.652;19.016;2023-04-23T08:11:45;4.55;;;2.37;;
64682;SDS011;51107;47.652;19.016;2023-04-23T08:14:15;7.15;;;2.58;;
64682;SDS011;51107;47.652;19.016;2023-04-23T08:16:43;4.12;;;2.53;;
64682;SDS011;51107;47.652;19.016;2023-04-23T08:19:12;5.07;;;2.30;;
64682;SDS011;51107;47.652;19.016;2023-04-23T08:21:40;4.07;;;2.37;;
64682;SDS011;51107;47.652;19.016;2023-04-23T08:24:08;4.65;;;2.70;;
64682;SDS011;51107;47.652;19.016;2023-04-23T08:26:37;5.25;;;3.33;;
64682;SDS011;51107;47.652;19.016;2023-04-23T08:29:06;4.82;;;2.65;;
64682;SDS011;51107;47.652;19.016;2023-04-23T08:31:37;5.85;;;2.90;;
64682;SDS011;51107;47.652;19.016;2023-04-23T08:34:05;4.45;;;3.10;;
64682;SDS011;51107;47.652;19.016;2023-04-23T08:36:33;4.93;;;2.85;;
64682;SDS011;51107;47.652;19.016;2023-04-23T08:39:03;6.15;;;3.00;;
64682;SDS011;51107;47.652;19.016;2023-04-23T08:41:38;8.50;;;3.60;;
64682;SDS011;51107;47.652;19.016;2023-04-23T08:44:16;6.95;;;3.60;;
64682;SDS011;51107;47.652;19.016;2023-04-23T08:46:46;6.28;;;3.00;;
64682;SDS011;51107;47.652;19.016;2023-04-23T08:49:16;4.25;;;2.75;;
64682;SDS011;51107;47.652;19.016;2023-04-23T08:51:50;4.10;;;2.42;;
64682;SDS011;51107;47.652;19.016;2023-04-23T08:56:54;2.67;;;2.08;;
64682;SDS011;51107;47.652;19.016;2023-04-23T08:59:29;5.55;;;2.55;;
64682;SDS011;51107;47.652;19.016;2023-04-23T09:01:58;3.95;;;2.00;;
64682;SDS011;51107;47.652;19.016;2023-04-23T09:04:28;3.05;;;2.40;;
64682;SDS011;51107;47.652;19.016;2023-04-23T09:06:58;3.55;;;1.98;;
64682;SDS011;51107;47.652;19.016;2023-04-23T09:09:27;3.53;;;2.10;;
64682;SDS011;51107;47.652;19.016;2023-04-23T09:11:57;3.45;;;2.20;;
64682;SDS011;51107;47.652;19.016;2023-04-23T09:14:25;2.70;;;1.73;;
64682;SDS011;51107;47.652;19.016;2023-04-23T09:16:53;2.95;;;1.62;;
64682;SDS011;51107;47.652;19.016;2023-04-23T09:19:22;5.15;;;1.40;;
64682;SDS011;51107;47.652;19.016;2023-04-23T09:21:54;2.15;;;1.60;;
64682;SDS011;51107;47.652;19.016;2023-04-23T09:24:24;2.97;;;1.73;;
64682;SDS011;51107;47.652;19.016;2023-04-23T09:26:52;2.85;;;1.70;;
64682;SDS011;51107;47.652;19.016;2023-04-23T09:29:22;3.00;;;1.67;;
64682;SDS011;51107;47.652;19.016;2023-04-23T09:31:53;2.50;;;1.42;;
64682;SDS011;51107;47.652;19.016;2023-04-23T09:34:23;2.72;;;1.75;;
64682;SDS011;51107;47.652;19.016;2023-04-23T09:36:52;3.97;;;1.92;;
64682;SDS011;51107;47.652;19.016;2023-04-23T09:39:21;2.75;;;1.80;;
64682;SDS011;51107;47.652;19.016;2023-04-23T09:41:51;3.22;;;2.05;;
64682;SDS011;51107;47.652;19.016;2023-04-23T09:44:23;2.28;;;1.75;;
64682;SDS011;51107;47.652;19.016;2023-04-23T09:46:53;2.08;;;1.60;;
64682;SDS011;51107;47.652;19.016;2023-04-23T09:49:22;3.60;;;2.08;;
64682;SDS011;51107;47.652;19.016;2023-04-23T09:51:51;2.78;;;1.90;;
64682;SDS011;51107;47.652;19.016;2023-04-23T09:54:20;2.90;;;1.77;;
64682;SDS011;51107;47.652;19.016;2023-04-23T09:56:50;8.60;;;2.08;;
64682;SDS011;51107;47.652;19.016;2023-04-23T09:59:31;2.15;;;1.60;;
64682;SDS011;51107;47.652;19.016;2023-04-23T10:02:15;1.67;;;1.57;;
64682;SDS011;51107;47.652;19.016;2023-04-23T10:04:44;2.05;;;1.40;;
64682;SDS011;51107;47.652;19.016;2023-04-23T10:07:23;2.42;;;1.62;;
64682;SDS011;51107;47.652;19.016;2023-04-23T10:09:52;2.83;;;1.87;;
64682;SDS011;51107;47.652;19.016;2023-04-23T10:12:20;2.15;;;1.60;;
64682;SDS011;51107;47.652;19.016;2023-04-23T10:15:09;2.12;;;1.50;;
64682;SDS011;51107;47.652;19.016;2023-04-23T10:17:39;3.87;;;2.00;;
64682;SDS011;51107;47.652;19.016;2023-04-23T10:20:08;3.50;;;2.10;;
64682;SDS011;51107;47.652;19.016;2023-04-23T10:22:37;2.83;;;1.75;;
64682;SDS011;51107;47.652;19.016;2023-04-23T10:25:08;1.45;;;1.27;;
64682;SDS011;51107;47.652;19.016;2023-04-23T10:27:39;2.42;;;1.65;;
64682;SDS011;51107;47.652;19.016;2023-04-23T10:30:21;2.15;;;1.37;;
64682;SDS011;51107;47.652;19.016;2023-04-23T10:32:50;2.33;;;1.50;;
64682;SDS011;51107;47.652;19.016;2023-04-23T10:35:20;3.50;;;1.90;;
64682;SDS011;51107;47.652;19.016;2023-04-23T10:37:49;2.12;;;1.40;;
64682;SDS011;51107;47.652;19.016;2023-04-23T10:40:19;1.90;;;1.45;;
64682;SDS011;51107;47.652;19.016;2023-04-23T10:42:53;2.20;;;1.50;;
64682;SDS011;51107;47.652;19.016;2023-04-23T10:45:22;1.58;;;1.23;;
64682;SDS011;51107;47.652;19.016;2023-04-23T10:47:52;2.67;;;1.67;;
64682;SDS011;51107;47.652;19.016;2023-04-23T10:50:26;2.15;;;1.67;;
64682;SDS011;51107;47.652;19.016;2023-04-23T10:52:55;1.48;;;1.37;;
64682;SDS011;51107;47.652;19.016;2023-04-23T10:55:26;3.08;;;1.73;;
64682;SDS011;51107;47.652;19.016;2023-04-23T10:57:59;1.83;;;1.52;;
64682;SDS011;51107;47.652;19.016;2023-04-23T11:06:49;2.55;;;1.65;;
64682;SDS011;51107;47.652;19.016;2023-04-23T11:09:59;2.05;;;1.42;;
64682;SDS011;51107;47.652;19.016;2023-04-23T11:12:11;1.25;;;1.10;;
64682;SDS011;51107;47.652;19.016;2023-04-23T11:14:51;1.73;;;1.05;;
64682;SDS011;51107;47.652;19.016;2023-04-23T11:17:23;3.08;;;1.40;;
64682;SDS011;51107;47.652;19.016;2023-04-23T11:22:41;1.92;;;1.37;;
64682;SDS011;51107;47.652;19.016;2023-04-23T11:25:12;2.05;;;1.42;;
64682;SDS011;51107;47.652;19.016;2023-04-23T11:27:42;3.30;;;1.27;;
64682;SDS011;51107;47.652;19.016;2023-04-23T11:30:12;2.35;;;1.40;;
64682;SDS011;51107;47.652;19.016;2023-04-23T11:32:44;2.40;;;1.15;;
64682;SDS011;51107;47.652;19.016;2023-04-23T11:35:16;2.42;;;1.23;;
64682;SDS011;51107;47.652;19.016;2023-04-23T11:37:47;1.73;;;1.20;;
64682;SDS011;51107;47.652;19.016;2023-04-23T11:40:16;1.75;;;1.48;;
64682;SDS011;51107;47.652;19.016;2023-04-23T11:42:47;1.58;;;1.15;;
64682;SDS011;51107;47.652;19.016;2023-04-23T11:47:51;2.03;;;1.25;;
64682;SDS011;51107;47.652;19.016;2023-04-23T11:50:29;2.10;;;1.40;;
64682;SDS011;51107;47.652;19.016;2023-04-23T11:53:03;2.65;;;1.33;;
64682;SDS011;51107;47.652;19.016;2023-04-23T11:55:33;1.10;;;1.00;;
64682;SDS011;51107;47.652;19.016;2023-04-23T11:58:02;2.37;;;1.33;;
64682;SDS011;51107;47.652;19.016;2023-04-23T12:00:31;1.77;;;1.20;;
64682;SDS011;51107;47.652;19.016;2023-04-23T12:03:00;1.30;;;1.20;;
64682;SDS011;51107;47.652;19.016;2023-04-23T12:05:30;13.82;;;1.40;;
64682;SDS011;51107;47.652;19.016;2023-04-23T12:08:07;1.55;;;1.15;;
64682;SDS011;51107;47.652;19.016;2023-04-23T12:13:22;2.22;;;1.50;;
64682;SDS011;51107;47.652;19.016;2023-04-23T12:16:04;1.30;;;1.20;;
64682;SDS011;51107;47.652;19.016;2023-04-23T12:18:38;2.78;;;1.48;;
64682;SDS011;51107;47.652;19.016;2023-04-23T12:21:09;1.77;;;1.35;;
64682;SDS011;51107;47.652;19.016;2023-04-23T12:23:40;2.12;;;1.45;;
64682;SDS011;51107;47.652;19.016;2023-04-23T12:26:15;1.90;;;1.30;;
64682;SDS011;51107;47.652;19.016;2023-04-23T12:28:55;1.83;;;1.25;;
64682;SDS011;51107;47.652;19.016;2023-04-23T12:31:27;1.37;;;1.05;;
64682;SDS011;51107;47.652;19.016;2023-04-23T12:34:07;1.08;;;0.98;;
64682;SDS011;51107;47.652;19.016;2023-04-23T12:36:36;1.67;;;1.10;;
64682;SDS011;51107;47.652;19.016;2023-04-23T12:39:21;2.12;;;1.50;;
64682;SDS011;51107;47.652;19.016;2023-04-23T12:41:55;2.30;;;1.50;;
64682;SDS011;51107;47.652;19.016;2023-04-23T12:44:27;3.85;;;1.92;;
64682;SDS011;51107;47.652;19.016;2023-04-23T12:47:13;6.00;;;1.58;;
64682;SDS011;51107;47.652;19.016;2023-04-23T12:49:43;2.33;;;1.45;;
64682;SDS011;51107;47.652;19.016;2023-04-23T12:52:11;1.50;;;1.37;;
64682;SDS011;51107;47.652;19.016;2023-04-23T12:54:40;1.52;;;1.37;;
64682;SDS011;51107;47.652;19.016;2023-04-23T12:57:12;2.00;;;1.45;;
64682;SDS011;51107;47.652;19.016;2023-04-23T12:59:48;1.48;;;1.25;;
64682;SDS011;51107;47.652;19.016;2023-04-23T13:02:17;4.18;;;1.20;;
64682;SDS011;51107;47.652;19.016;2023-04-23T13:04:45;1.73;;;1.27;;
64682;SDS011;51107;47.652;19.016;2023-04-23T13:07:13;1.80;;;1.50;;
64682;SDS011;51107;47.652;19.016;2023-04-23T13:09:44;1.65;;;1.15;;
64682;SDS011;51107;47.652;19.016;2023-04-23T13:12:13;1.48;;;1.20;;
64682;SDS011;51107;47.652;19.016;2023-04-23T13:14:41;1.85;;;1.30;;
64682;SDS011;51107;47.652;19.016;2023-04-23T13:17:10;1.62;;;1.30;;
64682;SDS011;51107;47.652;19.016;2023-04-23T13:19:38;2.92;;;1.73;;
64682;SDS011;51107;47.652;19.016;2023-04-23T13:22:07;3.15;;;1.67;;
64682;SDS011;51107;47.652;19.016;2023-04-23T13:24:36;5.78;;;1.92;;
64682;SDS011;51107;47.652;19.016;2023-04-23T13:27:04;3.03;;;1.37;;
64682;SDS011;51107;47.652;19.016;2023-04-23T13:29:32;2.70;;;1.87;;
64682;SDS011;51107;47.652;19.016;2023-04-23T13:32:01;1.52;;;1.40;;
64682;SDS011;51107;47.652;19.016;2023-04-23T13:34:29;3.60;;;1.48;;
64682;SDS011;51107;47.652;19.016;2023-04-23T13:36:57;1.98;;;1.37;;
64682;SDS011;51107;47.652;19.016;2023-04-23T13:39:26;2.78;;;1.65;;
64682;SDS011;51107;47.652;19.016;2023-04-23T13:41:54;1.87;;;1.37;;
64682;SDS011;51107;47.652;19.016;2023-04-23T13:44:36;4.35;;;1.50;;
64682;SDS011;51107;47.652;19.016;2023-04-23T13:47:05;1.50;;;1.35;;
64682;SDS011;51107;47.652;19.016;2023-04-23T13:49:33;3.22;;;1.48;;
64682;SDS011;51107;47.652;19.016;2023-04-23T13:52:01;2.03;;;1.40;;
64682;SDS011;51107;47.652;19.016;2023-04-23T13:54:34;1.62;;;1.23;;
64682;SDS011;51107;47.652;19.016;2023-04-23T13:57:03;2.22;;;1.50;;
64682;SDS011;51107;47.652;19.016;2023-04-23T13:59:31;1.30;;;1.20;;
64682;SDS011;51107;47.652;19.016;2023-04-23T14:01:59;2.45;;;1.50;;
64682;SDS011;51107;47.652;19.016;2023-04-23T14:04:27;1.90;;;1.40;;
64682;SDS011;51107;47.652;19.016;2023-04-23T14:06:56;1.65;;;1.25;;
64682;SDS011;51107;47.652;19.016;2023-04-23T14:09:24;8.52;;;1.52;;
64682;SDS011;51107;47.652;19.016;2023-04-23T14:11:53;8.73;;;1.75;;
64682;SDS011;51107;47.652;19.016;2023-04-23T14:14:21;1.10;;;1.00;;
64682;SDS011;51107;47.652;19.016;2023-04-23T14:16:49;2.80;;;1.52;;
64682;SDS011;51107;47.652;19.016;2023-04-23T14:19:18;3.95;;;1.40;;
64682;SDS011;51107;47.652;19.016;2023-04-23T14:21:46;2.40;;;1.20;;
64682;SDS011;51107;47.652;19.016;2023-04-23T14:24:33;3.35;;;1.23;;
64682;SDS011;51107;47.652;19.016;2023-04-23T14:27:06;2.35;;;1.42;;
64682;SDS011;51107;47.652;19.016;2023-04-23T14:29:35;1.75;;;1.35;;
64682;SDS011;51107;47.652;19.016;2023-04-23T14:32:08;3.77;;;1.70;;
64682;SDS011;51107;47.652;19.016;2023-04-23T14:34:37;1.52;;;1.25;;
64682;SDS011;51107;47.652;19.016;2023-04-23T14:37:06;1.70;;;1.33;;
64682;SDS011;51107;47.652;19.016;2023-04-23T14:39:34;1.73;;;1.40;;
64682;SDS011;51107;47.652;19.016;2023-04-23T14:42:03;1.65;;;1.40;;
64682;SDS011;51107;47.652;19.016;2023-04-23T14:44:32;2.85;;;1.83;;
64682;SDS011;51107;47.652;19.016;2023-04-23T14:47:00;2.47;;;1.33;;
64682;SDS011;51107;47.652;19.016;2023-04-23T14:49:28;1.60;;;1.25;;
64682;SDS011;51107;47.652;19.016;2023-04-23T14:51:56;2.35;;;1.42;;
64682;SDS011;51107;47.652;19.016;2023-04-23T14:54:25;1.87;;;1.30;;
64682;SDS011;51107;47.652;19.016;2023-04-23T14:56:53;3.58;;;1.60;;
64682;SDS011;51107;47.652;19.016;2023-04-23T14:59:22;2.05;;;1.30;;
64682;SDS011;51107;47.652;19.016;2023-04-23T15:01:50;1.87;;;1.50;;
64682;SDS011;51107;47.652;19.016;2023-04-23T15:04:19;2.00;;;1.55;;
64682;SDS011;51107;47.652;19.016;2023-04-23T15:06:47;3.58;;;1.50;;